Time;durP1;ratioP1;P1;durP2;ratioP2;P2;SDS_P1;SDS_P2;PMS_P1;PMS_P2;Temp;Humidity;BMP_temperature;BMP_pressure;BME280_temperature;BME280_humidity;BME280_pressure;Samples;Min_cycle;Max_cycle;Signal;HPM_P1;HPM_P2
2024/01/12 00:00:00;;;;;;;13.37;12.83;;;19.90;39.10;;;;;;5040137;28;20468;-66
2024/01/12 00:02:27;;;;;;;12.90;12.10;;;19.90;39.10;;;;;;5039507;28;20543;-66
2024/01/12 00:04:54;;;;;;;12.37;11.93;;;19.90;39.10;;;;;;5041573;28;20473;-66
2024/01/12 00:07:22;;;;;;;13.03;12.23;;;19.90;39.10;;;;;;5041816;28;20492;-66
2024/01/12 00:09:49;;;;;;;12.80;12.30;;;19.80;39.00;;;;;;5040783;28;20520;-66
2024/01/12 00:12:16;;;;;;;12.60;12.00;;;19.90;39.20;;;;;;5042963;28;20440;-66
2024/01/12 00:14:43;;;;;;;12.10;11.50;;;19.80;39.10;;;;;;5042351;28;20538;-66
2024/01/12 00:17:10;;;;;;;12.67;12.07;;;19.80;39.20;;;;;;5039430;28;20503;-65
2024/01/12 00:19:37;;;;;;;14.53;13.73;;;19.80;39.20;;;;;;5039483;28;20468;-66
2024/01/12 00:22:04;;;;;;;14.60;13.83;;;19.80;39.20;;;;;;5042564;28;20468;-65
2024/01/12 00:24:32;;;;;;;13.50;12.90;;;19.80;39.20;;;;;;5043029;28;20856;-66
2024/01/12 00:26:59;;;;;;;12.70;12.20;;;19.80;39.30;;;;;;5042678;28;20465;-66
2024/01/12 00:29:26;;;;;;;13.27;12.67;;;19.80;39.30;;;;;;5042648;28;20974;-65
2024/01/12 00:31:55;;;;;;;12.60;12.00;;;19.80;39.30;;;;;;5040919;28;20476;-65
2024/01/12 00:34:21;;;;;;;13.73;13.23;;;19.80;39.30;;;;;;5039337;28;20445;-65
2024/01/12 00:36:49;;;;;;;13.87;13.27;;;19.80;39.30;;;;;;5040025;28;20496;-65
2024/01/12 00:39:17;;;;;;;13.17;12.60;;;19.70;39.20;;;;;;5042910;28;20445;-66
2024/01/12 00:41:45;;;;;;;12.40;11.90;;;19.70;39.30;;;;;;5044986;28;20447;-66
2024/01/12 00:44:12;;;;;;;12.73;12.23;;;19.80;39.50;;;;;;5043159;28;20534;-65
2024/01/12 00:46:39;;;;;;;12.40;12.00;;;19.70;39.40;;;;;;5035731;28;20496;-66
2024/01/12 00:49:06;;;;;;;12.87;12.27;;;19.70;39.40;;;;;;5046216;28;20437;-66
2024/01/12 00:51:33;;;;;;;12.67;12.03;;;19.70;39.50;;;;;;5046271;28;20514;-66
2024/01/12 00:53:59;;;;;;;12.10;11.60;;;19.70;39.50;;;;;;5043638;28;20472;-66
2024/01/12 00:56:26;;;;;;;12.73;12.13;;;19.70;39.50;;;;;;5042822;28;20984;-65
2024/01/12 00:58:54;;;;;;;11.93;11.43;;;19.70;39.40;;;;;;5042691;28;20884;-65
2024/01/12 01:01:22;;;;;;;12.17;11.57;;;19.70;40.00;;;;;;5042662;28;20476;-65
2024/01/12 01:03:49;;;;;;;13.03;12.53;;;19.70;39.50;;;;;;5043720;28;21404;-66
2024/01/12 01:06:16;;;;;;;12.17;11.67;;;19.70;39.50;;;;;;5032754;28;20508;-66
2024/01/12 01:08:43;;;;;;;13.23;12.63;;;19.70;40.10;;;;;;5039341;28;20867;-66
2024/01/12 01:11:10;;;;;;;11.33;10.90;;;19.70;39.60;;;;;;5042657;28;20527;-66
2024/01/12 01:13:37;;;;;;;13.03;12.43;;;19.70;39.50;;;;;;5042610;28;20499;-65
2024/01/12 01:16:05;;;;;;;12.50;12.10;;;19.70;39.50;;;;;;5045253;28;20459;-66
2024/01/12 01:18:32;;;;;;;12.90;12.30;;;19.70;39.60;;;;;;5045869;28;20498;-66
2024/01/12 01:21:00;;;;;;;13.10;12.40;;;19.70;39.70;;;;;;5043377;28;20471;-66
2024/01/12 01:23:26;;;;;;;13.53;12.83;;;19.70;39.70;;;;;;5042511;28;20441;-66
2024/01/12 01:25:54;;;;;;;12.73;12.17;;;19.70;39.80;;;;;;5043582;28;20500;-66
2024/01/12 01:28:21;;;;;;;12.57;12.00;;;19.70;39.80;;;;;;5048801;28;20445;-66
2024/01/12 01:30:48;;;;;;;12.00;11.50;;;19.70;39.80;;;;;;5042718;28;20511;-66
2024/01/12 01:33:16;;;;;;;13.43;12.93;;;19.70;39.80;;;;;;5041269;28;20553;-66
2024/01/12 01:35:43;;;;;;;12.93;12.40;;;19.70;39.80;;;;;;5041962;28;20515;-66
2024/01/12 01:38:10;;;;;;;12.03;11.57;;;19.70;39.80;;;;;;5037956;28;20472;-66
2024/01/12 01:40:37;;;;;;;11.90;11.30;;;19.60;39.70;;;;;;5045625;28;20468;-67
2024/01/12 01:43:10;;;;;;;12.90;12.23;;;19.60;39.80;;;;;;5042517;28;20466;-65
2024/01/12 01:45:37;;;;;;;14.00;13.50;;;19.60;39.80;;;;;;5041878;28;20493;-66
2024/01/12 01:48:05;;;;;;;16.90;16.20;;;19.60;39.80;;;;;;5044562;28;20895;-65
2024/01/12 01:50:34;;;;;;;12.50;12.00;;;19.60;39.80;;;;;;5045414;28;20511;-66
2024/01/12 01:53:02;;;;;;;13.30;12.70;;;19.60;39.80;;;;;;5041824;28;20973;-66
2024/01/12 01:55:31;;;;;;;11.93;11.43;;;19.60;39.90;;;;;;5041690;28;20503;-66
2024/01/12 01:58:00;;;;;;;12.87;11.90;;;19.60;39.90;;;;;;5043585;28;20473;-66
2024/01/12 02:00:27;;;;;;;13.20;12.60;;;19.60;39.90;;;;;;5045118;28;20936;-66
2024/01/12 02:02:55;;;;;;;12.33;11.83;;;19.60;39.80;;;;;;5043655;28;20476;-66
2024/01/12 02:05:23;;;;;;;12.63;12.07;;;19.60;39.90;;;;;;5041472;28;20492;-66
2024/01/12 02:07:51;;;;;;;13.33;12.67;;;19.60;40.00;;;;;;5034028;28;20473;-65
2024/01/12 02:10:18;;;;;;;13.67;13.07;;;19.60;40.00;;;;;;5044928;28;20510;-66
2024/01/12 02:12:45;;;;;;;12.43;11.97;;;19.60;40.00;;;;;;5044680;28;20476;-66
2024/01/12 02:15:12;;;;;;;12.40;11.70;;;19.60;40.00;;;;;;5041249;28;20480;-66
2024/01/12 02:17:39;;;;;;;12.80;12.30;;;19.60;40.10;;;;;;5041399;28;20445;-66
2024/01/12 02:20:07;;;;;;;13.20;12.60;;;19.60;40.10;;;;;;5044084;28;20482;-66
2024/01/12 02:22:35;;;;;;;12.70;12.10;;;19.60;40.10;;;;;;5046230;28;20503;-66
2024/01/12 02:25:02;;;;;;;13.70;13.07;;;19.60;40.00;;;;;;5043202;28;20469;-66
2024/01/12 02:27:29;;;;;;;12.97;12.47;;;19.60;40.10;;;;;;5044605;28;20448;-66
2024/01/12 02:29:57;;;;;;;14.80;14.00;;;19.60;40.10;;;;;;5042883;28;20872;-65
2024/01/12 02:32:24;;;;;;;14.03;13.43;;;19.60;40.10;;;;;;5041135;28;20468;-66
2024/01/12 02:34:51;;;;;;;13.17;12.57;;;19.60;40.10;;;;;;5041596;28;20472;-66
2024/01/12 02:37:18;;;;;;;12.50;11.90;;;19.60;40.20;;;;;;5040005;28;20465;-66
2024/01/12 02:39:47;;;;;;;13.07;12.33;;;19.60;40.20;;;;;;5041030;28;20445;-66
2024/01/12 02:42:14;;;;;;;12.33;11.73;;;19.60;40.20;;;;;;5033189;28;20444;-66
2024/01/12 02:44:41;;;;;;;12.57;12.07;;;19.60;40.20;;;;;;5040887;28;20469;-66
2024/01/12 02:47:08;;;;;;;12.97;12.37;;;19.60;40.30;;;;;;5043762;28;20495;-66
2024/01/12 02:49:35;;;;;;;13.80;12.97;;;19.60;40.30;;;;;;5044218;28;20940;-66
2024/01/12 02:52:02;;;;;;;13.70;13.00;;;19.60;40.20;;;;;;5041718;28;20504;-66
2024/01/12 02:54:29;;;;;;;14.33;13.53;;;19.60;40.20;;;;;;5038455;28;20444;-66
2024/01/12 02:56:57;;;;;;;13.50;12.90;;;19.60;40.30;;;;;;5042586;28;20494;-66
2024/01/12 02:59:24;;;;;;;14.03;13.33;;;19.60;40.30;;;;;;5040618;28;20979;-65
2024/01/12 03:01:51;;;;;;;12.07;11.60;;;19.60;40.30;;;;;;5040980;28;20461;-66
2024/01/12 03:04:18;;;;;;;12.83;12.30;;;19.60;40.30;;;;;;5043731;28;20479;-66
2024/01/12 03:06:45;;;;;;;12.57;12.07;;;19.50;40.30;;;;;;5035856;28;20493;-66
2024/01/12 03:09:11;;;;;;;12.30;11.80;;;19.60;40.30;;;;;;5043747;28;20475;-66
2024/01/12 03:11:38;;;;;;;12.50;11.90;;;19.60;40.30;;;;;;5043513;28;21026;-66
2024/01/12 03:14:07;;;;;;;12.60;12.10;;;19.60;40.30;;;;;;5041060;28;20939;-66
2024/01/12 03:16:33;;;;;;;13.60;13.00;;;19.60;40.40;;;;;;5040157;28;20465;-65
2024/01/12 03:19:00;;;;;;;13.90;13.20;;;19.60;40.40;;;;;;5040231;28;20440;-66
2024/01/12 03:21:27;;;;;;;13.20;12.50;;;19.60;40.30;;;;;;5040062;28;20469;-66
2024/01/12 03:23:54;;;;;;;13.43;12.83;;;19.60;40.40;;;;;;5041078;28;20476;-65
2024/01/12 03:26:21;;;;;;;12.27;11.60;;;19.60;40.40;;;;;;5043591;28;20903;-66
2024/01/12 03:28:48;;;;;;;13.37;12.70;;;19.60;40.40;;;;;;5043259;28;20472;-66
2024/01/12 03:31:19;;;;;;;13.00;12.30;;;19.50;40.30;;;;;;5039815;28;20511;-66
2024/01/12 03:33:46;;;;;;;11.60;11.10;;;19.60;40.40;;;;;;5040064;28;20451;-66
2024/01/12 03:36:14;;;;;;;13.37;12.57;;;19.60;40.40;;;;;;5031781;28;20493;-65
2024/01/12 03:38:41;;;;;;;13.23;12.57;;;19.50;40.30;;;;;;5040074;28;20469;-66
2024/01/12 03:41:09;;;;;;;12.93;12.13;;;19.60;40.40;;;;;;5042512;28;21357;-65
2024/01/12 03:43:36;;;;;;;12.50;12.00;;;19.60;40.50;;;;;;5043232;28;20979;-66
2024/01/12 03:46:04;;;;;;;13.57;12.87;;;19.60;40.50;;;;;;5041199;28;20519;-66
2024/01/12 03:48:32;;;;;;;12.90;12.40;;;19.60;40.50;;;;;;5039786;28;21123;-66
2024/01/12 03:50:59;;;;;;;13.63;12.93;;;19.60;40.40;;;;;;5039551;28;20480;-65
2024/01/12 03:53:26;;;;;;;12.87;12.37;;;19.60;40.50;;;;;;5039700;28;20937;-65
2024/01/12 03:55:53;;;;;;;14.13;13.43;;;19.60;40.50;;;;;;5040065;28;20984;-65
2024/01/12 03:58:19;;;;;;;13.47;12.80;;;19.60;40.50;;;;;;5043112;28;20479;-66
2024/01/12 04:00:46;;;;;;;13.60;12.80;;;19.60;40.50;;;;;;5043520;28;20468;-65
2024/01/12 04:03:14;;;;;;;12.83;12.30;;;19.60;40.50;;;;;;5031438;28;20476;-65
2024/01/12 04:05:42;;;;;;;15.23;14.43;;;19.60;40.50;;;;;;5039503;28;20496;-66
2024/01/12 04:08:09;;;;;;;14.70;14.10;;;19.60;40.50;;;;;;5039435;28;20477;-65
2024/01/12 04:10:36;;;;;;;15.50;14.80;;;19.60;40.60;;;;;;5039512;28;20472;-65
2024/01/12 04:13:04;;;;;;;14.30;13.70;;;19.50;40.50;;;;;;5041260;28;20952;-65
2024/01/12 04:15:31;;;;;;;13.97;13.30;;;19.50;40.60;;;;;;5043898;28;20514;-65
2024/01/12 04:17:58;;;;;;;14.10;13.30;;;19.50;40.60;;;;;;5045832;28;20466;-65
2024/01/12 04:20:24;;;;;;;13.77;13.17;;;19.50;40.60;;;;;;5048409;28;20472;-66
2024/01/12 04:22:53;;;;;;;13.60;13.00;;;19.50;40.60;;;;;;5046750;28;20464;-65
2024/01/12 04:25:20;;;;;;;13.33;12.73;;;19.50;40.50;;;;;;5043414;28;20477;-65
2024/01/12 04:27:46;;;;;;;14.27;13.67;;;19.50;40.70;;;;;;5043410;28;20478;-65
2024/01/12 04:30:14;;;;;;;14.53;13.70;;;19.60;40.80;;;;;;5041939;28;20469;-65
2024/01/12 04:32:41;;;;;;;13.83;13.20;;;19.50;40.80;;;;;;5043266;28;20512;-65
2024/01/12 04:35:09;;;;;;;14.53;13.83;;;19.60;40.90;;;;;;5045276;28;20480;-65
2024/01/12 04:37:36;;;;;;;15.10;14.30;;;19.50;40.80;;;;;;5046710;28;20948;-65
2024/01/12 04:40:05;;;;;;;14.50;13.80;;;19.50;40.80;;;;;;5046584;28;20441;-65
2024/01/12 04:42:32;;;;;;;14.83;14.20;;;19.60;40.90;;;;;;5046560;28;20592;-65
2024/01/12 04:44:59;;;;;;;14.20;13.50;;;19.60;40.90;;;;;;5045426;28;20828;-65
2024/01/12 04:47:26;;;;;;;14.50;13.90;;;19.60;41.40;;;;;;5043160;28;20468;-65
2024/01/12 04:49:53;;;;;;;14.70;14.10;;;19.50;40.80;;;;;;5043224;28;20476;-65
2024/01/12 04:52:20;;;;;;;13.13;12.63;;;19.50;40.80;;;;;;5042475;28;20500;-65
2024/01/12 04:54:46;;;;;;;14.23;13.53;;;19.50;40.80;;;;;;5043014;28;20483;-65
2024/01/12 04:57:15;;;;;;;14.13;13.63;;;19.50;40.90;;;;;;5042656;28;20464;-65
2024/01/12 04:59:42;;;;;;;14.90;14.40;;;19.50;40.80;;;;;;5042973;28;20475;-65
2024/01/12 05:02:09;;;;;;;14.80;14.20;;;19.60;40.90;;;;;;5045012;28;20484;-65
2024/01/12 05:04:36;;;;;;;15.83;15.10;;;19.60;40.90;;;;;;5046160;28;20443;-65
2024/01/12 05:07:03;;;;;;;14.83;14.23;;;19.60;40.90;;;;;;5037876;28;21023;-65
2024/01/12 05:09:30;;;;;;;15.33;14.73;;;19.60;40.90;;;;;;5046060;28;20444;-65
2024/01/12 05:11:59;;;;;;;15.00;14.43;;;19.60;40.90;;;;;;5044966;28;20563;-65
2024/01/12 05:14:27;;;;;;;15.30;14.53;;;19.60;40.90;;;;;;5039057;28;20448;-65
2024/01/12 05:16:54;;;;;;;14.67;14.13;;;19.60;41.00;;;;;;5045525;28;20463;-65
2024/01/12 05:19:21;;;;;;;16.70;15.93;;;19.60;41.00;;;;;;5042429;28;20472;-65
2024/01/12 05:21:48;;;;;;;15.67;14.97;;;19.60;41.00;;;;;;5042530;28;20453;-65
2024/01/12 05:24:15;;;;;;;15.70;15.10;;;19.60;41.10;;;;;;5045372;28;20495;-65
2024/01/12 05:26:41;;;;;;;18.20;17.30;;;19.60;41.00;;;;;;5045702;28;20553;-65
2024/01/12 05:29:10;;;;;;;15.40;14.80;;;19.60;40.70;;;;;;5043315;28;20471;-65
2024/01/12 05:31:38;;;;;;;16.63;15.83;;;19.60;40.70;;;;;;5042136;28;20507;-65
2024/01/12 05:34:05;;;;;;;16.73;15.70;;;19.60;40.70;;;;;;5043762;28;20473;-65
2024/01/12 05:36:32;;;;;;;15.40;14.80;;;19.60;40.80;;;;;;5045603;28;20495;-65
2024/01/12 05:38:58;;;;;;;16.40;15.70;;;19.60;41.00;;;;;;5044699;28;20483;-65
2024/01/12 05:41:25;;;;;;;17.20;16.40;;;19.60;41.30;;;;;;5041988;28;20502;-65
2024/01/12 05:43:52;;;;;;;17.40;16.10;;;19.70;41.50;;;;;;5042013;28;20478;-65
2024/01/12 05:46:20;;;;;;;19.37;17.67;;;19.60;42.70;;;;;;5037292;23;20488;-70
2024/01/12 05:48:48;;;;;;;20.57;18.83;;;19.70;44.40;;;;;;5045068;28;20442;-70
2024/01/12 05:51:15;;;;;;;20.63;19.07;;;19.70;44.30;;;;;;5041196;28;20441;-71
2024/01/12 05:53:42;;;;;;;19.67;18.43;;;19.80;44.00;;;;;;5041630;28;20540;-71
2024/01/12 05:56:09;;;;;;;21.60;20.10;;;19.80;43.80;;;;;;5041545;28;20508;-71
2024/01/12 05:58:36;;;;;;;19.17;17.57;;;19.80;43.40;;;;;;5033577;28;20477;-71
2024/01/12 06:01:03;;;;;;;20.60;18.60;;;19.80;43.30;;;;;;5033121;28;20473;-71
2024/01/12 06:03:30;;;;;;;20.90;19.23;;;19.80;43.10;;;;;;5033317;28;20484;-71
2024/01/12 06:05:58;;;;;;;20.43;18.60;;;19.80;42.90;;;;;;5033090;28;20493;-71
2024/01/12 06:08:25;;;;;;;19.67;18.47;;;19.80;42.80;;;;;;5033361;28;20490;-71
2024/01/12 06:10:52;;;;;;;19.63;18.30;;;19.80;42.70;;;;;;5033272;28;20484;-71
2024/01/12 06:13:19;;;;;;;18.17;16.73;;;19.80;42.50;;;;;;5033087;28;20477;-69
2024/01/12 06:15:46;;;;;;;19.10;18.10;;;19.80;42.50;;;;;;5033318;28;20549;-69
2024/01/12 06:18:13;;;;;;;17.60;16.83;;;19.90;42.40;;;;;;5033126;28;20464;-69
2024/01/12 06:20:40;;;;;;;19.60;17.83;;;19.90;42.40;;;;;;5033248;28;20477;-69
2024/01/12 06:23:08;;;;;;;19.53;18.37;;;19.80;42.20;;;;;;5032867;28;20453;-69
2024/01/12 06:25:36;;;;;;;19.10;17.97;;;19.90;42.20;;;;;;5032911;28;20822;-69
2024/01/12 06:28:03;;;;;;;19.30;18.30;;;19.80;42.00;;;;;;5032953;28;20449;-68
2024/01/12 06:30:31;;;;;;;22.00;20.57;;;19.90;42.00;;;;;;5032811;28;20469;-68
2024/01/12 06:32:58;;;;;;;18.47;17.57;;;19.90;41.90;;;;;;5032715;28;20488;-69
2024/01/12 06:35:25;;;;;;;16.57;15.87;;;19.90;41.90;;;;;;5032945;28;20472;-68
2024/01/12 06:37:52;;;;;;;18.30;17.30;;;19.90;41.90;;;;;;5032306;28;20493;-69
2024/01/12 06:40:20;;;;;;;19.27;18.00;;;19.90;41.70;;;;;;5032437;28;20480;-68
2024/01/12 06:42:47;;;;;;;16.53;15.73;;;19.90;41.70;;;;;;5032670;28;20499;-69
2024/01/12 06:45:14;;;;;;;16.50;15.70;;;20.00;41.70;;;;;;5032548;28;20477;-69
2024/01/12 06:47:41;;;;;;;17.87;16.73;;;20.00;41.60;;;;;;5032402;28;20558;-69
2024/01/12 06:50:09;;;;;;;17.13;16.20;;;20.00;41.60;;;;;;5032315;28;20449;-68
2024/01/12 06:52:37;;;;;;;17.60;16.70;;;20.00;41.50;;;;;;5032299;28;20488;-69
2024/01/12 06:55:05;;;;;;;18.17;16.97;;;20.00;41.40;;;;;;5032225;28;20448;-69
2024/01/12 06:57:33;;;;;;;17.43;16.33;;;20.00;41.40;;;;;;5032338;28;20468;-69
2024/01/12 07:00:00;;;;;;;17.60;16.63;;;20.00;41.30;;;;;;5032140;28;20959;-69
2024/01/12 07:02:27;;;;;;;19.13;17.93;;;20.00;41.30;;;;;;5032337;28;20437;-69
2024/01/12 07:04:54;;;;;;;18.60;17.70;;;20.00;41.20;;;;;;5032325;28;20469;-69
2024/01/12 07:07:21;;;;;;;18.37;17.50;;;20.00;41.20;;;;;;5031891;28;20492;-69
2024/01/12 07:09:48;;;;;;;17.63;16.53;;;20.00;41.10;;;;;;5032220;28;20448;-69
2024/01/12 07:12:14;;;;;;;16.20;15.60;;;20.00;41.10;;;;;;5031915;28;20508;-69
2024/01/12 07:14:43;;;;;;;18.03;17.00;;;20.00;41.00;;;;;;5032066;28;20491;-69
2024/01/12 07:17:10;;;;;;;17.40;16.70;;;20.10;41.00;;;;;;5031853;28;20469;-69
2024/01/12 07:19:37;;;;;;;17.70;16.40;;;20.10;41.00;;;;;;5032078;28;20480;-69
2024/01/12 07:22:04;;;;;;;17.77;16.87;;;20.10;40.90;;;;;;5032211;28;20430;-69
2024/01/12 07:24:31;;;;;;;16.43;15.80;;;20.10;40.90;;;;;;5031894;28;20468;-69
2024/01/12 07:26:58;;;;;;;17.03;16.33;;;20.10;40.90;;;;;;5031592;28;20530;-69
2024/01/12 07:29:25;;;;;;;16.40;15.70;;;20.10;40.80;;;;;;5032000;28;20469;-69
2024/01/12 07:31:54;;;;;;;17.50;16.57;;;20.10;40.80;;;;;;5031688;28;20552;-69
2024/01/12 07:34:21;;;;;;;17.40;16.60;;;20.10;40.80;;;;;;5031581;28;20491;-69
2024/01/12 07:36:48;;;;;;;16.40;15.73;;;20.10;40.70;;;;;;5031514;28;20485;-70
2024/01/12 07:39:15;;;;;;;16.20;15.60;;;20.10;40.70;;;;;;5031555;28;20465;-70
2024/01/12 07:41:43;;;;;;;16.60;15.80;;;20.20;40.70;;;;;;5031557;28;20469;-70
2024/01/12 07:44:11;;;;;;;16.43;15.73;;;20.20;40.70;;;;;;5031469;28;20465;-70
2024/01/12 07:46:38;;;;;;;15.20;14.60;;;20.20;40.70;;;;;;5031340;28;20473;-70
2024/01/12 07:49:06;;;;;;;16.40;15.70;;;20.20;40.70;;;;;;5031437;28;20480;-70
2024/01/12 07:51:33;;;;;;;17.00;15.93;;;20.20;40.60;;;;;;5030578;28;20507;-70
2024/01/12 07:54:00;;;;;;;15.60;14.97;;;20.20;40.60;;;;;;5031327;28;20511;-70
2024/01/12 07:56:27;;;;;;;16.03;15.30;;;20.20;40.50;;;;;;5031294;28;20461;-70
2024/01/12 07:58:54;;;;;;;15.90;15.23;;;20.20;40.50;;;;;;5031473;28;20468;-70
2024/01/12 08:01:21;;;;;;;15.50;14.80;;;20.20;40.50;;;;;;5031175;28;20904;-71
2024/01/12 08:03:48;;;;;;;15.77;14.97;;;20.20;40.40;;;;;;5031293;28;20465;-70
2024/01/12 08:06:17;;;;;;;16.30;15.50;;;20.20;40.40;;;;;;5031277;28;20887;-70
2024/01/12 08:08:43;;;;;;;15.17;14.67;;;20.20;40.40;;;;;;5031425;28;20724;-70
2024/01/12 08:11:10;;;;;;;15.47;14.90;;;20.20;40.30;;;;;;5031004;28;20876;-70
2024/01/12 08:13:37;;;;;;;15.80;15.20;;;20.20;40.30;;;;;;5031170;28;20504;-70
2024/01/12 08:16:04;;;;;;;15.97;15.37;;;20.30;40.30;;;;;;5030910;28;20500;-70
2024/01/12 08:18:32;;;;;;;15.63;15.00;;;20.30;40.30;;;;;;5031141;28;20469;-70
2024/01/12 08:20:58;;;;;;;17.47;16.67;;;20.30;40.30;;;;;;5030990;28;20551;-70
2024/01/12 08:23:27;;;;;;;16.90;16.10;;;20.30;40.30;;;;;;5031087;28;20469;-70
2024/01/12 08:25:54;;;;;;;16.90;16.27;;;20.30;40.20;;;;;;5031185;28;20492;-70
2024/01/12 08:28:21;;;;;;;16.30;15.70;;;20.30;40.20;;;;;;5030988;28;20440;-70
2024/01/12 08:30:48;;;;;;;15.60;14.90;;;20.30;40.20;;;;;;5031099;28;20465;-70
2024/01/12 08:33:15;;;;;;;16.90;16.00;;;20.30;40.20;;;;;;5030854;28;20480;-70
2024/01/12 08:35:41;;;;;;;17.10;16.40;;;20.30;40.20;;;;;;5030984;28;20472;-70
2024/01/12 08:38:08;;;;;;;17.40;16.60;;;20.30;40.10;;;;;;5030959;28;20469;-70
2024/01/12 08:40:37;;;;;;;17.10;16.40;;;20.30;40.10;;;;;;5031101;28;20816;-70
2024/01/12 08:43:05;;;;;;;15.87;15.30;;;20.30;40.10;;;;;;5031075;28;20464;-70
2024/01/12 08:45:32;;;;;;;15.80;15.10;;;20.30;40.00;;;;;;5030956;28;20955;-70
2024/01/12 08:48:01;;;;;;;17.60;16.90;;;20.30;40.00;;;;;;5030762;28;20535;-70
2024/01/12 08:50:30;;;;;;;18.60;17.70;;;20.30;40.00;;;;;;5030886;28;20468;-70
2024/01/12 08:52:58;;;;;;;16.23;15.50;;;20.30;40.00;;;;;;5030809;28;20473;-70
2024/01/12 08:55:25;;;;;;;17.87;17.00;;;20.30;40.00;;;;;;5030713;28;20441;-70
2024/01/12 08:57:53;;;;;;;17.00;16.30;;;20.30;40.00;;;;;;5030750;28;20485;-70
2024/01/12 09:00:20;;;;;;;17.80;17.00;;;20.30;40.00;;;;;;5030638;28;20446;-70
2024/01/12 09:02:47;;;;;;;17.10;16.30;;;20.30;40.00;;;;;;5033604;28;20463;-70
2024/01/12 09:05:14;;;;;;;17.03;16.33;;;20.40;40.10;;;;;;5034336;28;20476;-70
2024/01/12 09:07:41;;;;;;;18.17;17.37;;;20.40;40.10;;;;;;5034307;28;20497;-70
2024/01/12 09:10:08;;;;;;;18.47;17.70;;;20.40;40.10;;;;;;5034123;28;20441;-70
2024/01/12 09:12:35;;;;;;;17.70;17.00;;;20.40;40.10;;;;;;5034105;28;20523;-70
2024/01/12 09:15:05;;;;;;;17.43;16.73;;;20.40;40.10;;;;;;5034090;28;20475;-70
2024/01/12 09:17:31;;;;;;;17.47;16.70;;;20.40;40.10;;;;;;5034182;28;20515;-70
2024/01/12 09:19:59;;;;;;;18.77;17.90;;;20.40;40.10;;;;;;5034185;28;20476;-70
2024/01/12 09:22:26;;;;;;;19.03;18.03;;;20.40;40.00;;;;;;5033884;28;20468;-70
2024/01/12 09:24:53;;;;;;;19.67;18.77;;;20.40;40.10;;;;;;5034001;28;20473;-70
2024/01/12 09:27:20;;;;;;;18.00;17.30;;;20.40;40.10;;;;;;5033861;28;20999;-70
2024/01/12 09:29:47;;;;;;;18.17;17.47;;;20.40;40.00;;;;;;5033950;28;20445;-70
2024/01/12 09:32:15;;;;;;;17.70;16.83;;;20.50;40.10;;;;;;5033694;28;20472;-70
2024/01/12 09:34:42;;;;;;;19.40;18.60;;;20.50;40.10;;;;;;5033798;28;20449;-70
2024/01/12 09:37:09;;;;;;;19.80;18.83;;;20.50;40.10;;;;;;5033732;28;20538;-70
2024/01/12 09:39:36;;;;;;;19.33;18.23;;;20.50;40.00;;;;;;5033804;28;20469;-70
2024/01/12 09:42:03;;;;;;;19.60;18.90;;;20.50;40.10;;;;;;5033679;28;20473;-70
2024/01/12 09:44:31;;;;;;;19.20;18.20;;;20.50;40.00;;;;;;5017989;28;20440;-70
2024/01/12 09:47:00;;;;;;;20.10;19.00;;;20.50;40.00;;;;;;5033582;28;20492;-70
2024/01/12 09:49:30;;;;;;;19.07;18.27;;;20.50;40.00;;;;;;5033428;28;20441;-70
2024/01/12 09:51:57;;;;;;;18.63;17.83;;;20.50;40.00;;;;;;5033454;28;20484;-70
2024/01/12 09:54:24;;;;;;;20.00;19.00;;;20.50;39.90;;;;;;5033281;28;20508;-70
2024/01/12 09:56:52;;;;;;;19.40;18.63;;;20.50;39.90;;;;;;5033526;28;20492;-70
2024/01/12 09:59:23;;;;;;;18.73;17.83;;;20.50;39.90;;;;;;5033411;28;20477;-70
2024/01/12 10:01:50;;;;;;;18.10;17.30;;;20.50;39.90;;;;;;5033347;28;20535;-71
2024/01/12 10:04:17;;;;;;;19.07;18.27;;;20.50;39.80;;;;;;5033257;28;20568;-71
2024/01/12 10:06:46;;;;;;;18.10;17.20;;;20.50;39.80;;;;;;5033232;28;20588;-71
2024/01/12 10:09:13;;;;;;;17.17;16.43;;;20.50;39.80;;;;;;5033186;28;20531;-70
2024/01/12 10:11:40;;;;;;;17.43;16.63;;;20.60;39.90;;;;;;5033138;28;20434;-70
2024/01/12 10:14:07;;;;;;;19.17;18.37;;;20.50;39.70;;;;;;5032188;28;20825;-71
2024/01/12 10:16:34;;;;;;;20.10;19.20;;;20.60;39.80;;;;;;5033139;28;20493;-71
2024/01/12 10:19:01;;;;;;;18.90;18.10;;;20.60;39.80;;;;;;5033068;28;20469;-70
2024/01/12 10:21:28;;;;;;;19.60;18.73;;;20.60;39.80;;;;;;5032924;28;20476;-70
2024/01/12 10:24:03;;;;;;;18.77;17.97;;;20.60;39.70;;;;;;5032913;28;20498;-70
2024/01/12 10:26:30;;;;;;;18.93;18.07;;;20.60;39.70;;;;;;5032852;28;20469;-71
2024/01/12 10:29:02;;;;;;;18.80;17.80;;;20.60;39.70;;;;;;5033104;28;20454;-70
2024/01/12 10:31:29;;;;;;;20.97;19.87;;;20.60;39.70;;;;;;5032641;28;20440;-70
2024/01/12 10:33:59;;;;;;;19.70;18.80;;;20.60;39.70;;;;;;5032727;28;20929;-70
2024/01/12 10:36:28;;;;;;;20.00;18.83;;;20.60;39.70;;;;;;5032510;28;20480;-70
2024/01/12 10:38:58;;;;;;;18.63;17.53;;;20.60;39.70;;;;;;5032692;28;20445;-71
2024/01/12 10:41:26;;;;;;;20.03;19.03;;;20.60;39.60;;;;;;5032445;28;20863;-70
2024/01/12 10:43:57;;;;;;;19.30;18.40;;;20.60;39.60;;;;;;5032469;28;20433;-70
2024/01/12 10:46:30;;;;;;;19.30;18.40;;;20.60;39.60;;;;;;5032312;28;20469;-71
2024/01/12 10:49:06;;;;;;;19.70;18.80;;;20.60;39.50;;;;;;5032438;28;20446;-71
2024/01/12 10:51:37;;;;;;;20.10;19.10;;;20.60;39.50;;;;;;5016764;28;20502;-70
2024/01/12 10:54:09;;;;;;;21.37;19.97;;;20.60;39.50;;;;;;5032462;28;20505;-70
2024/01/12 10:56:38;;;;;;;20.03;18.90;;;20.60;39.50;;;;;;5017373;28;20492;-70
2024/01/12 10:59:06;;;;;;;18.40;17.57;;;20.60;39.50;;;;;;5032435;28;20441;-71
2024/01/12 11:01:34;;;;;;;18.70;17.83;;;20.60;39.50;;;;;;5016401;28;20821;-71
2024/01/12 11:04:01;;;;;;;19.77;18.97;;;20.60;39.50;;;;;;5032192;28;20999;-70
2024/01/12 11:06:31;;;;;;;19.30;18.30;;;20.60;39.50;;;;;;5031992;28;20480;-70
2024/01/12 11:08:58;;;;;;;19.07;18.07;;;20.60;39.50;;;;;;5032059;28;20452;-70
2024/01/12 11:11:35;;;;;;;20.13;18.93;;;20.60;39.50;;;;;;5032039;28;20480;-71
2024/01/12 11:14:04;;;;;;;18.27;17.40;;;20.60;39.50;;;;;;5032035;28;21030;-70
2024/01/12 11:16:31;;;;;;;18.87;17.87;;;20.60;39.50;;;;;;5031974;28;20465;-70
2024/01/12 11:18:58;;;;;;;19.70;18.70;;;20.60;39.50;;;;;;5031885;28;20441;-70
2024/01/12 11:21:26;;;;;;;19.03;17.93;;;20.60;39.50;;;;;;5031779;28;20952;-71
2024/01/12 11:23:53;;;;;;;19.30;18.40;;;20.60;39.60;;;;;;5032113;28;20429;-71
2024/01/12 11:26:20;;;;;;;18.77;17.87;;;20.60;39.50;;;;;;5031591;28;20468;-70
2024/01/12 11:28:49;;;;;;;20.17;19.07;;;20.60;39.50;;;;;;5031740;28;20473;-71
2024/01/12 11:31:26;;;;;;;19.47;18.57;;;20.60;39.50;;;;;;5031396;28;20441;-71
2024/01/12 11:34:00;;;;;;;19.30;18.33;;;20.60;39.60;;;;;;5031717;28;20526;-70
2024/01/12 11:36:28;;;;;;;19.33;18.50;;;20.60;39.50;;;;;;5031587;28;20495;-71
2024/01/12 11:38:56;;;;;;;19.33;18.33;;;20.60;39.50;;;;;;5031610;28;20473;-71
2024/01/12 11:41:28;;;;;;;18.97;18.13;;;20.60;39.60;;;;;;5031453;28;20453;-71
2024/01/12 11:43:55;;;;;;;19.17;18.20;;;20.70;39.60;;;;;;5031597;28;20441;-71
2024/01/12 11:46:23;;;;;;;19.07;17.97;;;20.70;39.60;;;;;;5031467;28;20514;-70
2024/01/12 11:48:52;;;;;;;19.60;18.70;;;20.70;39.60;;;;;;5031359;28;20444;-69
2024/01/12 11:51:23;;;;;;;19.07;18.03;;;20.70;39.60;;;;;;5031301;28;20821;-69
2024/01/12 11:53:56;;;;;;;19.40;18.27;;;20.70;39.60;;;;;;5031471;28;20893;-69
2024/01/12 11:56:23;;;;;;;19.83;18.63;;;20.70;39.50;;;;;;5031267;28;20844;-69
2024/01/12 11:58:51;;;;;;;18.43;17.63;;;20.70;39.50;;;;;;5031395;28;20928;-69
2024/01/12 12:01:19;;;;;;;19.13;18.13;;;20.70;39.50;;;;;;5031202;28;20535;-70
2024/01/12 12:03:45;;;;;;;19.30;18.40;;;20.70;39.50;;;;;;5031489;28;20433;-70
2024/01/12 12:06:14;;;;;;;18.57;17.77;;;20.70;39.50;;;;;;5031171;28;20489;-69
2024/01/12 12:08:42;;;;;;;18.53;17.67;;;20.70;39.50;;;;;;5031357;28;20476;-69
2024/01/12 12:11:10;;;;;;;18.13;17.30;;;20.70;39.50;;;;;;5031199;28;20477;-69
2024/01/12 12:13:37;;;;;;;17.90;17.17;;;20.70;39.40;;;;;;5031370;28;20481;-71
2024/01/12 12:16:05;;;;;;;19.20;18.30;;;20.70;39.40;;;;;;5031182;28;20473;-71
2024/01/12 12:18:32;;;;;;;18.90;18.10;;;20.70;39.40;;;;;;5031211;28;20942;-71
2024/01/12 12:21:01;;;;;;;19.13;18.33;;;20.70;39.40;;;;;;5031169;28;20469;-71
2024/01/12 12:23:30;;;;;;;20.07;19.17;;;20.70;39.40;;;;;;5031108;28;20437;-71
2024/01/12 12:25:57;;;;;;;19.40;18.50;;;20.70;39.30;;;;;;5031279;28;20885;-71
2024/01/12 12:28:24;;;;;;;20.00;19.00;;;20.70;39.30;;;;;;5031201;28;20473;-71